Time;durP1;ratioP1;P1;durP2;ratioP2;P2;SDS_P1;SDS_P2;PMS_P1;PMS_P2;Temp;Humidity;BMP_temperature;BMP_pressure;BME280_temperature;BME280_humidity;BME280_pressure;Samples;Min_cycle;Max_cycle;Signal;HPM_P1;HPM_P2
2022/04/17 00:00:39;;;;;;;24.10;22.50;;;;;;;;;;5116823;28;20866;-83
2022/04/17 00:03:07;;;;;;;24.20;22.80;;;;;;;;;;5116852;28;20444;-84
2022/04/17 00:05:35;;;;;;;23.67;22.27;;;;;;;;;;5116472;28;20801;-83
2022/04/17 00:08:03;;;;;;;24.03;22.53;;;;;;;;;;5116151;28;21113;-83
2022/04/17 00:10:30;;;;;;;24.17;22.77;;;;;;;;;;5116469;28;20474;-83
2022/04/17 00:12:58;;;;;;;24.83;23.00;;;;;;;;;;5116534;28;20559;-83
2022/04/17 00:15:25;;;;;;;24.33;22.87;;;;;;;;;;5115989;28;20460;-83
2022/04/17 00:17:54;;;;;;;24.50;23.10;;;;;;;;;;5115950;28;20483;-83
2022/04/17 00:20:21;;;;;;;24.52;23.02;;;;;;;;;;5116272;28;20497;-83
2022/04/17 00:22:49;;;;;;;25.23;23.53;;;;;;;;;;5116331;28;20191;-84
2022/04/17 00:25:18;;;;;;;23.70;22.30;;;;;;;;;;5116375;27;20440;-83
2022/04/17 00:27:45;;;;;;;25.40;23.90;;;;;;;;;;5115845;28;20437;-83
2022/04/17 00:30:13;;;;;;;24.00;22.50;;;;;;;;;;5114807;28;20441;-83
2022/04/17 00:32:41;;;;;;;24.47;22.97;;;;;;;;;;5114424;28;20927;-83
2022/04/17 00:35:10;;;;;;;24.00;22.50;;;;;;;;;;5114588;28;20448;-83
2022/04/17 00:37:38;;;;;;;24.00;22.60;;;;;;;;;;5114577;28;20436;-83
2022/04/17 00:40:06;;;;;;;25.07;23.57;;;;;;;;;;5116023;28;20842;-83
2022/04/17 00:42:34;;;;;;;25.50;24.00;;;;;;;;;;5115715;28;20419;-84
2022/04/17 00:45:01;;;;;;;24.27;22.87;;;;;;;;;;5115699;28;20444;-83
2022/04/17 00:47:29;;;;;;;23.40;22.00;;;;;;;;;;5114494;28;20432;-83
2022/04/17 00:49:57;;;;;;;24.60;23.00;;;;;;;;;;5115741;28;20444;-83
2022/04/17 00:52:25;;;;;;;23.70;22.20;;;;;;;;;;5115925;28;20574;-83
2022/04/17 00:54:53;;;;;;;24.27;22.73;;;;;;;;;;5115532;28;20844;-83
2022/04/17 00:57:21;;;;;;;23.40;21.98;;;;;;;;;;5114241;28;20463;-83
2022/04/17 00:59:49;;;;;;;23.27;21.88;;;;;;;;;;5115118;27;20186;-83
2022/04/17 01:02:17;;;;;;;23.20;21.83;;;;;;;;;;5115335;28;20249;-83
2022/04/17 01:04:44;;;;;;;24.10;22.67;;;;;;;;;;5115469;27;20263;-83
2022/04/17 01:07:12;;;;;;;24.27;22.67;;;;;;;;;;5115284;28;20468;-83
2022/04/17 01:09:41;;;;;;;23.47;21.93;;;;;;;;;;5115053;28;20433;-83
2022/04/17 01:12:10;;;;;;;23.40;22.10;;;;;;;;;;5114841;28;20466;-83
2022/04/17 01:14:38;;;;;;;23.02;21.65;;;;;;;;;;5113810;28;20514;-84
2022/04/17 01:17:06;;;;;;;24.30;22.80;;;;;;;;;;5114816;28;20704;-83
2022/04/17 01:19:35;;;;;;;23.10;21.85;;;;;;;;;;5115363;28;20195;-85
2022/04/17 01:22:05;;;;;;;23.92;22.52;;;;;;;;;;5114978;28;20194;-83
2022/04/17 01:27:19;;;;;;;23.98;22.23;;;;;;;;;;5114907;28;20416;-84
2022/04/17 01:29:47;;;;;;;23.65;22.15;;;;;;;;;;5114751;28;20193;-83
2022/04/17 01:32:15;;;;;;;23.67;22.20;;;;;;;;;;5114336;28;20218;-83
2022/04/17 01:34:42;;;;;;;22.70;21.40;;;;;;;;;;5114800;28;20476;-84
2022/04/17 01:37:11;;;;;;;24.17;22.50;;;;;;;;;;5114743;28;20407;-84
2022/04/17 01:39:38;;;;;;;24.27;22.88;;;;;;;;;;5113771;28;20247;-83
2022/04/17 01:42:06;;;;;;;22.70;21.40;;;;;;;;;;5113341;28;20232;-83
2022/04/17 01:44:34;;;;;;;22.77;21.47;;;;;;;;;;5114277;28;20950;-84
2022/04/17 01:47:02;;;;;;;24.05;22.55;;;;;;;;;;5114454;28;20974;-84
2022/04/17 01:49:30;;;;;;;24.07;22.57;;;;;;;;;;5113700;28;20282;-84
2022/04/17 01:51:58;;;;;;;23.20;21.80;;;;;;;;;;5114709;28;20468;-83
2022/04/17 01:54:27;;;;;;;23.40;22.00;;;;;;;;;;5114331;28;20485;-83
2022/04/17 01:56:57;;;;;;;23.10;21.80;;;;;;;;;;5114038;28;20414;-83
2022/04/17 01:59:25;;;;;;;23.60;22.20;;;;;;;;;;5113039;28;20415;-82
2022/04/17 02:01:52;;;;;;;23.30;21.67;;;;;;;;;;5113074;28;20433;-83
2022/04/17 02:04:20;;;;;;;24.27;22.47;;;;;;;;;;5114166;28;20647;-82
2022/04/17 02:06:47;;;;;;;24.50;23.03;;;;;;;;;;5112983;28;20439;-83
2022/04/17 02:09:16;;;;;;;23.67;22.27;;;;;;;;;;5114941;28;20456;-84
2022/04/17 02:11:45;;;;;;;24.20;22.60;;;;;;;;;;5114264;28;20186;-83
2022/04/17 02:14:13;;;;;;;23.65;22.25;;;;;;;;;;5114391;28;20195;-84
2022/04/17 02:16:41;;;;;;;24.35;22.80;;;;;;;;;;5113903;28;20226;-83
2022/04/17 02:19:09;;;;;;;23.93;22.30;;;;;;;;;;5113879;28;20186;-84
2022/04/17 02:21:36;;;;;;;23.87;22.37;;;;;;;;;;5113572;28;20437;-84
2022/04/17 02:24:04;;;;;;;23.48;21.80;;;;;;;;;;5112379;28;20427;-84
2022/04/17 02:26:32;;;;;;;24.63;23.05;;;;;;;;;;5114074;28;20194;-83
2022/04/17 02:29:02;;;;;;;23.15;21.63;;;;;;;;;;5112677;28;20191;-83
2022/04/17 02:31:30;;;;;;;22.70;21.30;;;;;;;;;;5113755;28;20643;-83
2022/04/17 02:33:59;;;;;;;23.40;21.90;;;;;;;;;;5114025;28;20286;-83
2022/04/17 02:36:27;;;;;;;22.92;21.38;;;;;;;;;;5113463;28;20187;-84
2022/04/17 02:38:55;;;;;;;22.20;20.80;;;;;;;;;;5113525;28;20207;-83
2022/04/17 02:41:22;;;;;;;23.90;22.50;;;;;;;;;;5113755;28;20222;-83
2022/04/17 02:43:50;;;;;;;23.10;21.50;;;;;;;;;;5114033;28;20411;-83
2022/04/17 02:47:42;;;;;;;25.40;23.70;;;;;;;;;;5113889;28;20186;-84
2022/04/17 02:49:05;;;;;;;23.48;21.98;;;;;;;;;;5113417;28;20417;-83
2022/04/17 02:51:33;;;;;;;23.13;21.65;;;;;;;;;;5113461;28;20272;-83
2022/04/17 02:54:01;;;;;;;23.60;22.00;;;;;;;;;;5112290;28;20268;-84
2022/04/17 02:56:28;;;;;;;23.10;21.80;;;;;;;;;;5113501;28;20427;-83
2022/04/17 02:58:55;;;;;;;23.60;21.97;;;;;;;;;;5113903;28;20463;-83
2022/04/17 03:06:54;;;;;;;23.50;22.08;;;;;;;;;;5113155;28;20364;-83
2022/04/17 03:09:22;;;;;;;22.90;21.40;;;;;;;;;;5113679;28;20186;-84
2022/04/17 03:11:49;;;;;;;22.60;21.20;;;;;;;;;;5113411;28;20187;-83
2022/04/17 03:14:16;;;;;;;22.88;21.58;;;;;;;;;;5113246;28;20476;-83
2022/04/17 03:16:45;;;;;;;23.92;22.52;;;;;;;;;;5112724;28;20291;-84
2022/04/17 03:19:13;;;;;;;23.33;21.92;;;;;;;;;;5113947;28;20652;-83
2022/04/17 03:21:40;;;;;;;23.45;22.02;;;;;;;;;;5113937;28;20605;-84
2022/04/17 03:24:08;;;;;;;23.20;21.90;;;;;;;;;;5113697;28;20256;-84
2022/04/17 03:26:36;;;;;;;22.88;21.33;;;;;;;;;;5113667;28;20518;-84
2022/04/17 03:29:04;;;;;;;25.27;23.58;;;;;;;;;;5113680;28;20194;-84
2022/04/17 03:31:31;;;;;;;24.00;22.60;;;;;;;;;;5113660;28;20278;-84
2022/04/17 03:34:00;;;;;;;23.30;21.90;;;;;;;;;;5113864;28;20509;-85
2022/04/17 03:36:28;;;;;;;23.40;21.90;;;;;;;;;;5117389;28;20221;-85
2022/04/17 03:38:55;;;;;;;23.27;21.55;;;;;;;;;;5116087;28;20472;-84
2022/04/17 03:41:22;;;;;;;24.13;22.58;;;;;;;;;;5117627;28;20279;-84
2022/04/17 03:43:50;;;;;;;23.25;21.95;;;;;;;;;;5117242;28;20220;-84
2022/04/17 03:46:17;;;;;;;23.33;22.02;;;;;;;;;;5117128;28;20693;-84
2022/04/17 03:48:44;;;;;;;22.42;21.13;;;;;;;;;;5116013;28;20211;-84
2022/04/17 03:51:13;;;;;;;23.50;21.85;;;;;;;;;;5116906;28;20228;-84
2022/04/17 03:53:42;;;;;;;24.25;22.75;;;;;;;;;;5117137;28;20214;-85
2022/04/17 03:56:09;;;;;;;23.20;21.90;;;;;;;;;;5117366;28;20191;-84
2022/04/17 03:58:36;;;;;;;23.10;21.70;;;;;;;;;;5116759;28;20195;-84
2022/04/17 04:01:04;;;;;;;24.10;22.02;;;;;;;;;;5117123;28;20191;-84
2022/04/17 04:03:32;;;;;;;22.75;21.45;;;;;;;;;;5116723;28;20239;-84
2022/04/17 04:05:59;;;;;;;23.60;22.10;;;;;;;;;;5116626;28;20701;-83
2022/04/17 04:08:28;;;;;;;23.38;21.98;;;;;;;;;;5117152;27;20191;-84
2022/04/17 04:10:55;;;;;;;24.30;22.67;;;;;;;;;;5116767;28;20577;-83
2022/04/17 04:13:23;;;;;;;22.73;21.38;;;;;;;;;;5116652;28;20233;-85
2022/04/17 04:15:50;;;;;;;23.73;22.15;;;;;;;;;;5116245;28;20230;-84
2022/04/17 04:18:18;;;;;;;24.48;22.77;;;;;;;;;;5116735;27;20208;-84
2022/04/17 04:20:45;;;;;;;23.17;21.75;;;;;;;;;;5116520;28;20202;-83
2022/04/17 04:23:12;;;;;;;24.83;22.88;;;;;;;;;;5116385;28;20197;-83
2022/04/17 04:25:41;;;;;;;24.50;22.90;;;;;;;;;;5116329;28;20203;-83
2022/04/17 04:30:53;;;;;;;23.95;22.45;;;;;;;;;;5116940;28;20201;-88
2022/04/17 04:33:21;;;;;;;25.20;23.70;;;;;;;;;;5116876;28;20676;-88
2022/04/17 04:35:48;;;;;;;23.90;22.48;;;;;;;;;;5116432;28;20277;-88
2022/04/17 04:38:15;;;;;;;23.33;21.92;;;;;;;;;;5117150;28;20540;-87
2022/04/17 04:40:45;;;;;;;23.23;21.83;;;;;;;;;;5117195;28;20186;-88
2022/04/17 04:43:12;;;;;;;23.95;22.55;;;;;;;;;;5116943;28;20260;-87
2022/04/17 04:51:05;;;;;;;23.73;22.23;;;;;;;;;;5116019;28;20191;-88
2022/04/17 04:53:33;;;;;;;24.15;22.55;;;;;;;;;;5116329;28;20693;-88
2022/04/17 04:56:02;;;;;;;23.25;21.88;;;;;;;;;;5115271;28;20202;-87
2022/04/17 04:58:29;;;;;;;23.65;22.08;;;;;;;;;;5116193;28;20203;-87
2022/04/17 05:00:57;;;;;;;23.92;22.33;;;;;;;;;;5116263;28;20191;-87
2022/04/17 05:03:25;;;;;;;23.13;21.73;;;;;;;;;;5115246;28;20213;-86
2022/04/17 05:05:52;;;;;;;23.52;21.95;;;;;;;;;;5115890;28;20518;-87
2022/04/17 05:08:20;;;;;;;23.40;22.00;;;;;;;;;;5116594;28;20211;-88
2022/04/17 05:10:47;;;;;;;23.60;21.90;;;;;;;;;;5115996;28;20602;-87
2022/04/17 05:13:17;;;;;;;23.70;22.10;;;;;;;;;;5116004;28;20222;-88
2022/04/17 05:15:44;;;;;;;23.58;22.23;;;;;;;;;;5116191;28;20288;-87
2022/04/17 05:18:12;;;;;;;24.52;22.73;;;;;;;;;;5116143;28;20195;-88
2022/04/17 05:20:39;;;;;;;25.50;23.70;;;;;;;;;;5115705;28;20194;-87
2022/04/17 05:23:18;;;;;;;23.58;22.17;;;;;;;;;;5116171;28;20540;-88
2022/04/17 05:25:46;;;;;;;24.83;23.13;;;;;;;;;;5115732;28;20187;-87
2022/04/17 05:28:13;;;;;;;24.83;23.10;;;;;;;;;;5115994;28;20257;-87
2022/04/17 05:30:42;;;;;;;23.67;22.20;;;;;;;;;;5115734;28;20411;-88
2022/04/17 05:33:10;;;;;;;24.33;22.73;;;;;;;;;;5115551;28;20309;-88
2022/04/17 05:35:37;;;;;;;23.95;22.45;;;;;;;;;;5097649;28;20198;-88
2022/04/17 05:38:06;;;;;;;25.13;23.42;;;;;;;;;;5114240;28;20609;-88
2022/04/17 05:40:37;;;;;;;24.48;22.90;;;;;;;;;;5116069;28;20593;-88
2022/04/17 05:43:05;;;;;;;24.45;22.98;;;;;;;;;;5097782;28;20217;-87
2022/04/17 05:45:32;;;;;;;23.80;22.30;;;;;;;;;;5115707;28;20195;-88
2022/04/17 05:48:01;;;;;;;24.15;22.65;;;;;;;;;;5115455;28;20187;-87
2022/04/17 05:50:29;;;;;;;24.05;22.42;;;;;;;;;;5115550;27;20198;-87
2022/04/17 05:52:57;;;;;;;24.63;23.13;;;;;;;;;;5115536;28;20194;-88
2022/04/17 05:55:24;;;;;;;24.05;22.65;;;;;;;;;;5114938;28;20206;-88
2022/04/17 05:57:51;;;;;;;24.47;22.97;;;;;;;;;;5115099;28;20240;-87
2022/04/17 06:00:19;;;;;;;24.00;22.40;;;;;;;;;;5115241;28;20423;-87
2022/04/17 06:02:47;;;;;;;23.15;21.75;;;;;;;;;;5115312;28;20191;-87
2022/04/17 06:05:17;;;;;;;23.90;22.50;;;;;;;;;;5115003;28;20230;-87
2022/04/17 06:07:45;;;;;;;24.20;22.70;;;;;;;;;;5114834;28;20309;-87
2022/04/17 06:10:12;;;;;;;24.02;22.63;;;;;;;;;;5114939;28;20933;-87
2022/04/17 06:12:40;;;;;;;25.63;24.07;;;;;;;;;;5115152;28;20265;-88
2022/04/17 06:15:09;;;;;;;24.75;23.25;;;;;;;;;;5114456;28;20993;-88
2022/04/17 06:17:38;;;;;;;23.53;22.13;;;;;;;;;;5115064;28;20268;-87
2022/04/17 06:20:06;;;;;;;23.83;22.37;;;;;;;;;;5115001;28;20433;-87
2022/04/17 06:22:36;;;;;;;23.47;21.77;;;;;;;;;;5113683;28;20951;-87
2022/04/17 06:25:04;;;;;;;22.40;20.90;;;;;;;;;;5115156;28;20457;-86
2022/04/17 06:27:37;;;;;;;24.50;22.80;;;;;;;;;;5114665;28;20419;-88
2022/04/17 06:30:07;;;;;;;23.27;21.87;;;;;;;;;;5114581;28;20403;-87
2022/04/17 06:32:35;;;;;;;23.80;22.27;;;;;;;;;;5114458;28;20395;-88
2022/04/17 06:35:02;;;;;;;23.27;21.77;;;;;;;;;;5114530;28;20455;-87
2022/04/17 06:37:29;;;;;;;23.83;22.43;;;;;;;;;;5114478;28;20423;-87
2022/04/17 06:39:58;;;;;;;25.37;23.60;;;;;;;;;;5114627;28;20432;-87
2022/04/17 06:42:26;;;;;;;23.93;22.43;;;;;;;;;;5114703;28;20464;-87
2022/04/17 06:44:55;;;;;;;24.30;22.87;;;;;;;;;;5114733;28;20415;-91
2022/04/17 06:47:22;;;;;;;24.73;23.10;;;;;;;;;;5114296;28;20528;-86
2022/04/17 06:49:50;;;;;;;23.50;22.10;;;;;;;;;;5114415;28;20407;-87
2022/04/17 06:52:17;;;;;;;23.80;22.40;;;;;;;;;;5113008;28;20476;-87
2022/04/17 06:54:45;;;;;;;24.83;23.03;;;;;;;;;;5114503;28;20572;-87
2022/04/17 06:57:14;;;;;;;25.40;23.80;;;;;;;;;;5114491;28;20432;-83
2022/04/17 06:59:41;;;;;;;24.50;22.97;;;;;;;;;;5112038;28;20488;-82
2022/04/17 07:02:09;;;;;;;24.80;23.10;;;;;;;;;;5114250;28;20436;-87
2022/04/17 07:04:36;;;;;;;23.53;22.10;;;;;;;;;;5114027;28;20980;-84
2022/04/17 07:07:04;;;;;;;23.97;22.53;;;;;;;;;;5113736;28;20442;-88
2022/04/17 07:09:31;;;;;;;24.90;23.40;;;;;;;;;;5116300;28;20448;-86
2022/04/17 07:11:59;;;;;;;22.60;21.30;;;;;;;;;;5117653;28;20408;-85
2022/04/17 07:14:28;;;;;;;25.10;23.53;;;;;;;;;;5116671;28;20466;-87
2022/04/17 07:16:55;;;;;;;24.43;23.03;;;;;;;;;;5117969;28;20469;-87
2022/04/17 07:19:23;;;;;;;25.27;23.73;;;;;;;;;;5117005;28;20475;-86
2022/04/17 07:21:50;;;;;;;24.47;22.97;;;;;;;;;;5116667;28;20934;-86
2022/04/17 07:24:18;;;;;;;24.93;23.30;;;;;;;;;;5118391;28;20446;-87
2022/04/17 07:26:45;;;;;;;24.80;23.20;;;;;;;;;;5116872;28;20769;-84
2022/04/17 07:29:13;;;;;;;26.50;24.90;;;;;;;;;;5116443;28;20523;-85
2022/04/17 07:31:42;;;;;;;25.33;23.73;;;;;;;;;;5117951;28;20457;-93
2022/04/17 07:34:09;;;;;;;24.67;22.97;;;;;;;;;;5118034;28;20541;-86
2022/04/17 07:36:37;;;;;;;24.23;22.63;;;;;;;;;;5099322;28;20444;-91
2022/04/17 07:39:04;;;;;;;24.80;23.20;;;;;;;;;;5118211;27;20990;-89
2022/04/17 07:41:32;;;;;;;25.00;23.50;;;;;;;;;;5118029;28;20494;-88
2022/04/17 07:43:59;;;;;;;24.77;23.27;;;;;;;;;;5116572;28;20912;-88
2022/04/17 07:46:27;;;;;;;23.90;22.50;;;;;;;;;;5117844;28;20410;-88
2022/04/17 07:48:55;;;;;;;23.93;22.33;;;;;;;;;;5117873;28;20448;-89
2022/04/17 07:51:23;;;;;;;23.57;22.20;;;;;;;;;;5117868;28;20485;-90
2022/04/17 07:53:51;;;;;;;24.97;23.23;;;;;;;;;;5116543;28;20533;-91
2022/04/17 07:56:18;;;;;;;24.20;22.60;;;;;;;;;;5116305;28;20434;-91
2022/04/17 07:58:46;;;;;;;24.27;22.60;;;;;;;;;;5117632;28;20465;-91
2022/04/17 08:01:15;;;;;;;24.00;22.40;;;;;;;;;;5117404;28;20444;-91
2022/04/17 08:03:49;;;;;;;23.93;22.50;;;;;;;;;;5117417;28;20506;-90
2022/04/17 08:06:20;;;;;;;23.40;22.00;;;;;;;;;;5117928;28;20484;-91
2022/04/17 08:08:50;;;;;;;23.43;22.10;;;;;;;;;;5116972;28;20451;-89
2022/04/17 08:11:18;;;;;;;23.10;21.80;;;;;;;;;;5117224;28;20499;-90
2022/04/17 08:13:46;;;;;;;24.37;23.00;;;;;;;;;;5116019;28;20477;-90
2022/04/17 08:16:14;;;;;;;23.10;21.80;;;;;;;;;;5117148;28;20463;-90
2022/04/17 08:18:42;;;;;;;22.87;21.57;;;;;;;;;;5116019;28;20924;-90
2022/04/17 08:21:09;;;;;;;22.97;21.60;;;;;;;;;;5115829;28;20524;-90
2022/04/17 08:23:38;;;;;;;25.57;23.47;;;;;;;;;;5117154;28;20403;-90
2022/04/17 08:26:06;;;;;;;23.47;22.17;;;;;;;;;;5117097;28;20531;-90
2022/04/17 08:28:33;;;;;;;23.13;21.73;;;;;;;;;;5117315;28;20407;-90
2022/04/17 08:31:01;;;;;;;23.90;22.60;;;;;;;;;;5116030;28;20423;-90
2022/04/17 08:33:29;;;;;;;23.50;22.20;;;;;;;;;;5116638;28;20464;-90
2022/04/17 08:35:58;;;;;;;25.30;23.70;;;;;;;;;;5116093;28;20483;-90
2022/04/17 08:38:26;;;;;;;24.87;23.27;;;;;;;;;;5117079;28;20415;-90
2022/04/17 08:40:55;;;;;;;24.57;23.17;;;;;;;;;;5116906;28;20411;-90
2022/04/17 08:43:22;;;;;;;24.97;23.43;;;;;;;;;;5116886;28;20494;-90
2022/04/17 08:45:54;;;;;;;23.47;22.17;;;;;;;;;;5116854;28;20443;-90
2022/04/17 08:48:22;;;;;;;24.97;23.37;;;;;;;;;;5115638;28;20403;-90
2022/04/17 08:50:51;;;;;;;23.83;22.43;;;;;;;;;;5116800;28;20437;-90
2022/04/17 08:53:19;;;;;;;24.53;23.10;;;;;;;;;;5116835;28;20881;-89
2022/04/17 08:55:47;;;;;;;25.10;23.60;;;;;;;;;;5116709;28;20455;-90
2022/04/17 08:58:17;;;;;;;23.83;22.43;;;;;;;;;;5116190;28;20423;-89
2022/04/17 09:00:44;;;;;;;22.53;21.33;;;;;;;;;;5116680;28;21144;-90
2022/04/17 09:03:13;;;;;;;24.50;23.20;;;;;;;;;;5116386;28;20448;-90
2022/04/17 09:05:41;;;;;;;23.50;22.17;;;;;;;;;;5115247;28;20443;-89
2022/04/17 09:08:15;;;;;;;23.60;22.20;;;;;;;;;;5116527;28;20456;-89
2022/04/17 09:10:43;;;;;;;23.30;21.97;;;;;;;;;;5116207;28;20913;-90
2022/04/17 09:13:10;;;;;;;24.73;23.23;;;;;;;;;;5116013;28;20432;-90
2022/04/17 09:15:39;;;;;;;24.27;22.80;;;;;;;;;;5115679;28;20507;-89
2022/04/17 09:18:08;;;;;;;24.67;23.00;;;;;;;;;;5116121;28;20472;-90
2022/04/17 09:20:35;;;;;;;24.50;23.10;;;;;;;;;;5116270;28;20470;-90
2022/04/17 09:23:03;;;;;;;22.80;21.40;;;;;;;;;;5115811;28;20436;-90
2022/04/17 09:25:31;;;;;;;23.50;22.20;;;;;;;;;;5116348;28;20410;-90
2022/04/17 09:27:59;;;;;;;24.07;22.67;;;;;;;;;;5116042;28;20765;-89
2022/04/17 09:30:31;;;;;;;24.33;22.83;;;;;;;;;;5115715;28;20450;-90
2022/04/17 09:33:03;;;;;;;24.43;22.93;;;;;;;;;;5115179;28;20412;-89
2022/04/17 09:35:31;;;;;;;25.83;24.13;;;;;;;;;;5115687;28;20975;-89
2022/04/17 09:37:59;;;;;;;25.40;23.70;;;;;;;;;;5116027;28;20513;-89
2022/04/17 09:40:26;;;;;;;24.83;23.33;;;;;;;;;;5115648;28;20450;-90
2022/04/17 09:43:09;;;;;;;25.23;23.73;;;;;;;;;;5116395;28;20407;-89
2022/04/17 09:45:57;;;;;;;25.30;23.80;;;;;;;;;;5115536;28;20428;-89
2022/04/17 09:48:26;;;;;;;22.97;21.57;;;;;;;;;;5115696;28;20450;-89
2022/04/17 09:50:53;;;;;;;23.73;22.13;;;;;;;;;;5116066;28;20403;-88
2022/04/17 09:53:33;;;;;;;24.47;22.97;;;;;;;;;;5114904;28;20472;-89
2022/04/17 09:56:11;;;;;;;23.93;22.40;;;;;;;;;;5114234;28;20476;-89
2022/04/17 09:58:39;;;;;;;23.57;22.17;;;;;;;;;;5115754;28;20452;-89
2022/04/17 10:01:07;;;;;;;22.23;20.90;;;;;;;;;;5115706;28;20433;-89
2022/04/17 10:03:40;;;;;;;23.13;21.83;;;;;;;;;;5115017;28;20407;-89
2022/04/17 10:06:08;;;;;;;22.50;21.30;;;;;;;;;;5115086;28;20468;-89
2022/04/17 10:08:35;;;;;;;22.00;20.70;;;;;;;;;;5115019;28;20976;-88
2022/04/17 10:11:03;;;;;;;23.73;22.27;;;;;;;;;;5114280;28;20419;-89
2022/04/17 10:13:32;;;;;;;22.53;21.23;;;;;;;;;;5114956;28;20936;-89
2022/04/17 10:16:00;;;;;;;23.30;22.00;;;;;;;;;;5114658;28;21047;-88
2022/04/17 10:18:29;;;;;;;22.83;21.53;;;;;;;;;;5114975;28;20412;-89
2022/04/17 10:20:59;;;;;;;22.87;21.57;;;;;;;;;;5115048;28;20429;-89
2022/04/17 10:23:29;;;;;;;22.43;21.23;;;;;;;;;;5115215;28;20441;-89
2022/04/17 10:25:58;;;;;;;22.53;21.33;;;;;;;;;;5114834;28;20433;-88
2022/04/17 10:28:27;;;;;;;22.00;20.70;;;;;;;;;;5114871;28;20479;-88
2022/04/17 10:31:02;;;;;;;22.77;21.47;;;;;;;;;;5114900;28;20905;-89
2022/04/17 10:33:37;;;;;;;21.60;20.30;;;;;;;;;;5114859;28;20443;-89
2022/04/17 10:36:22;;;;;;;24.27;22.67;;;;;;;;;;5114573;28;20450;-90
2022/04/17 10:38:59;;;;;;;23.20;21.80;;;;;;;;;;5107672;28;20450;-88
2022/04/17 10:41:26;;;;;;;23.43;22.13;;;;;;;;;;5114659;28;20407;-88
2022/04/17 10:43:57;;;;;;;22.97;21.67;;;;;;;;;;5114101;28;20411;-89
2022/04/17 10:46:25;;;;;;;22.60;21.30;;;;;;;;;;5114694;28;20439;-89
2022/04/17 10:48:54;;;;;;;22.07;20.77;;;;;;;;;;5113412;28;20432;-89
2022/04/17 10:51:23;;;;;;;22.77;21.47;;;;;;;;;;5113146;28;20531;-89
2022/04/17 10:53:51;;;;;;;22.30;21.00;;;;;;;;;;5114913;28;20408;-89
2022/04/17 10:56:21;;;;;;;22.80;21.40;;;;;;;;;;5114323;28;20488;-89
2022/04/17 10:58:54;;;;;;;22.43;21.13;;;;;;;;;;5113556;28;20511;-89
2022/04/17 11:01:54;;;;;;;22.27;21.00;;;;;;;;;;5114863;28;20429;-89
2022/04/17 11:04:24;;;;;;;23.50;22.00;;;;;;;;;;5051989;28;20489;-89
2022/04/17 11:06:56;;;;;;;22.30;21.00;;;;;;;;;;5051685;28;20463;-89
2022/04/17 11:09:24;;;;;;;22.93;21.63;;;;;;;;;;5052098;28;20425;-89
2022/04/17 11:11:53;;;;;;;23.20;21.80;;;;;;;;;;5034946;28;20509;-89
2022/04/17 11:14:22;;;;;;;22.00;20.90;;;;;;;;;;5051823;28;20525;-89
2022/04/17 11:16:51;;;;;;;23.17;21.87;;;;;;;;;;5051213;28;20503;-92
2022/04/17 11:19:19;;;;;;;22.60;21.40;;;;;;;;;;5051851;28;20425;-89
2022/04/17 11:21:49;;;;;;;23.20;21.77;;;;;;;;;;5051595;28;20437;-85
2022/04/17 11:24:17;;;;;;;22.93;21.67;;;;;;;;;;5051777;28;20438;-89
2022/04/17 11:27:02;;;;;;;22.53;21.33;;;;;;;;;;5051674;28;20538;-88
2022/04/17 11:29:38;;;;;;;22.63;21.37;;;;;;;;;;5051732;28;20454;-90
2022/04/17 11:32:20;;;;;;;23.00;21.70;;;;;;;;;;5051708;28;20574;-90
2022/04/17 11:34:52;;;;;;;23.20;22.00;;;;;;;;;;5069416;28;20444;-88
2022/04/17 11:37:20;;;;;;;22.87;21.57;;;;;;;;;;5112628;28;20928;-87
2022/04/17 11:39:47;;;;;;;23.93;22.60;;;;;;;;;;5113758;28;20444;-88
2022/04/17 11:42:14;;;;;;;22.90;21.50;;;;;;;;;;5114055;28;20436;-88
2022/04/17 11:44:43;;;;;;;22.23;20.93;;;;;;;;;;5114282;28;20444;-88
2022/04/17 11:47:15;;;;;;;23.03;21.73;;;;;;;;;;5113890;28;20433;-87
2022/04/17 11:49:42;;;;;;;22.03;20.83;;;;;;;;;;5112745;28;20432;-88
2022/04/17 11:52:14;;;;;;;22.10;20.80;;;;;;;;;;5112640;28;20445;-88
2022/04/17 11:54:41;;;;;;;22.27;21.07;;;;;;;;;;5114175;28;20419;-91
2022/04/17 11:57:09;;;;;;;22.83;21.43;;;;;;;;;;5117366;28;21180;-87
2022/04/17 11:59:47;;;;;;;21.83;20.60;;;;;;;;;;5117936;28;20419;-87
2022/04/17 12:02:16;;;;;;;23.80;22.40;;;;;;;;;;5117605;27;20412;-87
2022/04/17 12:04:43;;;;;;;22.53;21.43;;;;;;;;;;5116187;28;20446;-88
2022/04/17 12:07:11;;;;;;;23.07;21.77;;;;;;;;;;5116195;28;20476;-90
2022/04/17 12:09:39;;;;;;;21.90;20.70;;;;;;;;;;5117257;28;20415;-87
2022/04/17 12:12:11;;;;;;;23.50;21.93;;;;;;;;;;5117228;28;20433;-87
2022/04/17 12:14:39;;;;;;;23.20;21.83;;;;;;;;;;5116007;28;20551;-89
2022/04/17 12:17:08;;;;;;;23.83;22.30;;;;;;;;;;5116073;28;20512;-89
2022/04/17 12:19:35;;;;;;;22.70;21.50;;;;;;;;;;5117595;28;20436;-90
2022/04/17 12:22:06;;;;;;;22.00;20.80;;;;;;;;;;5116414;28;20835;-89
2022/04/17 12:24:33;;;;;;;22.50;21.20;;;;;;;;;;5117893;28;20485;-89
2022/04/17 12:27:01;;;;;;;22.50;21.20;;;;;;;;;;5119519;28;20440;-89
2022/04/17 12:29:28;;;;;;;22.80;21.30;;;;;;;;;;5116185;28;20954;-89
2022/04/17 12:31:56;;;;;;;22.40;21.10;;;;;;;;;;5115592;28;20501;-88
2022/04/17 12:34:26;;;;;;;22.60;21.40;;;;;;;;;;5117147;27;20419;-89
2022/04/17 12:36:54;;;;;;;23.00;21.70;;;;;;;;;;5116650;28;20492;-90
2022/04/17 12:39:32;;;;;;;23.23;21.93;;;;;;;;;;5116746;28;20420;-87
2022/04/17 12:41:59;;;;;;;23.13;21.83;;;;;;;;;;5115406;28;20449;-88
2022/04/17 12:44:33;;;;;;;23.23;21.93;;;;;;;;;;5098799;28;20423;-87
2022/04/17 12:47:10;;;;;;;23.17;21.87;;;;;;;;;;5116614;28;20415;-89
2022/04/17 12:49:40;;;;;;;23.10;21.80;;;;;;;;;;5115606;28;20444;-87
2022/04/17 12:52:08;;;;;;;23.10;21.80;;;;;;;;;;5116696;28;20430;-89
2022/04/17 12:54:36;;;;;;;23.87;22.30;;;;;;;;;;5115631;28;20453;-90
2022/04/17 12:57:05;;;;;;;22.93;21.70;;;;;;;;;;5116452;28;20483;-90
2022/04/17 12:59:42;;;;;;;22.83;21.50;;;;;;;;;;5116569;28;20448;-90
2022/04/17 13:02:13;;;;;;;22.70;21.40;;;;;;;;;;5116733;28;20437;-90
2022/04/17 13:04:45;;;;;;;23.07;21.60;;;;;;;;;;5114895;28;20449;-89
2022/04/17 13:07:15;;;;;;;21.90;20.70;;;;;;;;;;5115500;27;20491;-87
2022/04/17 13:09:52;;;;;;;22.17;20.97;;;;;;;;;;5114549;28;20477;-87
2022/04/17 13:12:33;;;;;;;21.63;20.50;;;;;;;;;;5116162;28;20435;-85
2022/04/17 13:15:01;;;;;;;23.00;21.70;;;;;;;;;;5115479;28;20964;-87
2022/04/17 13:17:29;;;;;;;22.87;21.67;;;;;;;;;;5075011;28;20512;-87
2022/04/17 13:19:58;;;;;;;23.73;22.33;;;;;;;;;;5075109;28;20891;-87
2022/04/17 13:22:26;;;;;;;22.60;21.40;;;;;;;;;;5074250;28;20432;-87
2022/04/17 13:24:56;;;;;;;22.73;21.43;;;;;;;;;;5075157;28;20467;-87
2022/04/17 13:27:24;;;;;;;23.20;21.80;;;;;;;;;;5073768;28;20497;-89
2022/04/17 13:29:51;;;;;;;24.53;23.13;;;;;;;;;;5075320;28;20857;-88
2022/04/17 13:32:19;;;;;;;23.87;22.57;;;;;;;;;;5075087;28;20901;-89
2022/04/17 13:34:46;;;;;;;23.60;22.33;;;;;;;;;;5073718;28;20983;-88
2022/04/17 13:40:00;;;;;;;24.00;22.70;;;;;;;;;;5074807;28;20467;-88
2022/04/17 13:42:28;;;;;;;23.23;21.93;;;;;;;;;;5073631;28;20476;-87
2022/04/17 13:44:55;;;;;;;24.13;22.63;;;;;;;;;;5075012;28;20476;-88
2022/04/17 13:47:23;;;;;;;24.70;23.30;;;;;;;;;;5074601;28;20438;-88
2022/04/17 13:49:50;;;;;;;24.13;22.73;;;;;;;;;;5074552;28;20428;-88
2022/04/17 13:52:19;;;;;;;23.87;22.37;;;;;;;;;;5074477;28;20490;-87
2022/04/17 13:54:46;;;;;;;22.97;21.57;;;;;;;;;;5074745;28;20406;-89
2022/04/17 13:57:14;;;;;;;24.50;23.07;;;;;;;;;;5072958;28;20507;-90
2022/04/17 13:59:41;;;;;;;23.50;22.30;;;;;;;;;;5074557;28;20458;-90
2022/04/17 14:02:08;;;;;;;22.17;20.97;;;;;;;;;;5074781;28;20782;-90
2022/04/17 14:04:36;;;;;;;23.70;22.30;;;;;;;;;;5074181;28;20401;-90
2022/04/17 14:07:07;;;;;;;22.77;21.50;;;;;;;;;;5074696;28;20516;-90
2022/04/17 14:09:37;;;;;;;23.60;22.27;;;;;;;;;;5074281;28;20413;-89
2022/04/17 14:12:06;;;;;;;23.37;22.00;;;;;;;;;;5074090;28;20436;-90
2022/04/17 14:14:34;;;;;;;23.50;22.20;;;;;;;;;;5074029;28;20432;-89
2022/04/17 14:17:01;;;;;;;22.80;21.60;;;;;;;;;;5107619;28;20533;-89
2022/04/17 14:19:29;;;;;;;22.73;21.43;;;;;;;;;;5113979;28;20411;-90
2022/04/17 14:21:56;;;;;;;23.53;22.13;;;;;;;;;;5115880;28;20415;-86
2022/04/17 14:24:24;;;;;;;24.00;22.70;;;;;;;;;;5115453;28;20546;-87
2022/04/17 14:26:53;;;;;;;23.30;22.00;;;;;;;;;;5114971;28;20468;-88
2022/04/17 14:29:21;;;;;;;23.30;21.80;;;;;;;;;;5113495;28;20448;-86
2022/04/17 14:31:48;;;;;;;23.70;22.40;;;;;;;;;;5115351;28;20437;-90
2022/04/17 14:34:15;;;;;;;24.70;23.20;;;;;;;;;;5113875;28;20852;-89
2022/04/17 14:36:43;;;;;;;23.37;22.17;;;;;;;;;;5114976;28;20487;-88
2022/04/17 14:39:10;;;;;;;23.93;22.63;;;;;;;;;;5115117;28;20930;-89
2022/04/17 14:41:39;;;;;;;23.73;22.53;;;;;;;;;;5115824;28;20422;-88
2022/04/17 14:44:08;;;;;;;24.03;22.63;;;;;;;;;;5114700;28;20786;-88